Vandiver, Alabama
Current Conditions -  °F | °C
As of 3:53 AM on Wednesday 26 Nov 2014 (Local Time) from KBHM Reporting Station
Clear Clear  
Wind Chill: 32°   Ceiling: Unl
Heat Index: 37°   Visibility: 10mi
Dew Point: 29°   Wind: 7mph
Humidity: 73%   Direction: 300°WNW
Pressure: 30.13"   Gusts: NA
Location:  33.47°N, 86.51°W
Report Text: KBHM 260953Z 30006KT 10SM CLR 03/M02 A3013 RMK AO2 SLP202 T00281017
Loading
Personal Weather Stations






























Interactive Weather Map New forecast layout! Learn more

10-Day Weather Forecast

Advertisements
Track Severe Weather on mobile